sensor_id;sensor_type;location;lat;lon;timestamp;P1;durP1;ratioP1;P2;durP2;ratioP2
69126;SDS011;56688;50.234;19.292;2024-01-25T00:01:48;8.90;;;2.10;;
69126;SDS011;56688;50.234;19.292;2024-01-25T00:04:15;11.00;;;2.20;;
69126;SDS011;56688;50.234;19.292;2024-01-25T00:06:43;9.80;;;3.00;;
69126;SDS011;56688;50.234;19.292;2024-01-25T00:09:10;5.70;;;1.90;;
69126;SDS011;56688;50.234;19.292;2024-01-25T00:11:40;14.70;;;3.00;;
69126;SDS011;56688;50.234;19.292;2024-01-25T00:14:08;7.30;;;2.00;;
69126;SDS011;56688;50.234;19.292;2024-01-25T00:16:34;9.00;;;2.40;;
69126;SDS011;56688;50.234;19.292;2024-01-25T00:19:01;11.00;;;2.20;;
69126;SDS011;56688;50.234;19.292;2024-01-25T00:21:28;11.00;;;2.50;;
69126;SDS011;56688;50.234;19.292;2024-01-25T00:23:55;9.40;;;2.20;;
69126;SDS011;56688;50.234;19.292;2024-01-25T00:26:22;8.60;;;2.00;;
69126;SDS011;56688;50.234;19.292;2024-01-25T00:28:49;11.20;;;2.50;;
69126;SDS011;56688;50.234;19.292;2024-01-25T00:31:17;9.20;;;2.50;;
69126;SDS011;56688;50.234;19.292;2024-01-25T00:33:44;7.10;;;2.10;;
69126;SDS011;56688;50.234;19.292;2024-01-25T00:36:11;8.90;;;2.50;;
69126;SDS011;56688;50.234;19.292;2024-01-25T00:38:38;6.50;;;1.70;;
69126;SDS011;56688;50.234;19.292;2024-01-25T00:41:06;11.60;;;2.10;;
69126;SDS011;56688;50.234;19.292;2024-01-25T00:43:35;9.30;;;2.10;;
69126;SDS011;56688;50.234;19.292;2024-01-25T00:46:03;10.30;;;2.10;;
69126;SDS011;56688;50.234;19.292;2024-01-25T00:48:30;12.30;;;2.40;;
69126;SDS011;56688;50.234;19.292;2024-01-25T00:50:58;7.10;;;2.00;;
69126;SDS011;56688;50.234;19.292;2024-01-25T00:53:25;6.70;;;2.00;;
69126;SDS011;56688;50.234;19.292;2024-01-25T00:55:53;6.80;;;1.90;;
69126;SDS011;56688;50.234;19.292;2024-01-25T00:58:20;7.20;;;1.60;;
69126;SDS011;56688;50.234;19.292;2024-01-25T01:00:47;7.00;;;2.10;;
69126;SDS011;56688;50.234;19.292;2024-01-25T01:03:14;11.10;;;2.30;;
69126;SDS011;56688;50.234;19.292;2024-01-25T01:05:45;6.60;;;1.60;;
69126;SDS011;56688;50.234;19.292;2024-01-25T01:08:12;10.00;;;2.30;;
69126;SDS011;56688;50.234;19.292;2024-01-25T01:10:39;5.60;;;1.60;;
69126;SDS011;56688;50.234;19.292;2024-01-25T01:13:06;5.60;;;1.50;;
69126;SDS011;56688;50.234;19.292;2024-01-25T01:15:33;7.20;;;1.90;;
69126;SDS011;56688;50.234;19.292;2024-01-25T01:18:00;9.70;;;1.90;;
69126;SDS011;56688;50.234;19.292;2024-01-25T01:20:27;5.70;;;1.80;;
69126;SDS011;56688;50.234;19.292;2024-01-25T01:22:54;8.50;;;1.90;;
69126;SDS011;56688;50.234;19.292;2024-01-25T01:25:21;8.60;;;1.70;;
69126;SDS011;56688;50.234;19.292;2024-01-25T01:27:49;6.90;;;2.00;;
69126;SDS011;56688;50.234;19.292;2024-01-25T01:30:16;8.30;;;1.90;;
69126;SDS011;56688;50.234;19.292;2024-01-25T01:32:43;8.50;;;2.20;;
69126;SDS011;56688;50.234;19.292;2024-01-25T01:35:10;6.90;;;1.90;;
69126;SDS011;56688;50.234;19.292;2024-01-25T01:37:38;6.30;;;1.80;;
69126;SDS011;56688;50.234;19.292;2024-01-25T01:40:05;5.90;;;1.80;;
69126;SDS011;56688;50.234;19.292;2024-01-25T01:42:32;9.10;;;1.90;;
69126;SDS011;56688;50.234;19.292;2024-01-25T01:45:00;5.60;;;1.50;;
69126;SDS011;56688;50.234;19.292;2024-01-25T01:47:27;6.20;;;1.80;;
69126;SDS011;56688;50.234;19.292;2024-01-25T01:49:55;7.10;;;1.90;;
69126;SDS011;56688;50.234;19.292;2024-01-25T01:52:22;10.40;;;1.80;;
69126;SDS011;56688;50.234;19.292;2024-01-25T01:54:49;7.70;;;1.80;;
69126;SDS011;56688;50.234;19.292;2024-01-25T01:57:16;6.10;;;1.40;;
69126;SDS011;56688;50.234;19.292;2024-01-25T01:59:43;8.40;;;1.80;;
69126;SDS011;56688;50.234;19.292;2024-01-25T02:02:11;7.70;;;1.80;;
69126;SDS011;56688;50.234;19.292;2024-01-25T02:04:38;4.00;;;1.40;;
69126;SDS011;56688;50.234;19.292;2024-01-25T02:07:05;6.60;;;1.60;;
69126;SDS011;56688;50.234;19.292;2024-01-25T02:09:33;6.80;;;1.70;;
69126;SDS011;56688;50.234;19.292;2024-01-25T02:12:01;8.50;;;1.90;;
69126;SDS011;56688;50.234;19.292;2024-01-25T02:14:30;6.90;;;1.80;;
69126;SDS011;56688;50.234;19.292;2024-01-25T02:16:57;7.80;;;1.60;;
69126;SDS011;56688;50.234;19.292;2024-01-25T02:19:24;8.60;;;1.70;;
69126;SDS011;56688;50.234;19.292;2024-01-25T02:21:51;8.40;;;1.90;;
69126;SDS011;56688;50.234;19.292;2024-01-25T02:24:21;6.80;;;1.80;;
69126;SDS011;56688;50.234;19.292;2024-01-25T02:26:48;11.00;;;1.90;;
69126;SDS011;56688;50.234;19.292;2024-01-25T02:29:15;12.30;;;2.20;;
69126;SDS011;56688;50.234;19.292;2024-01-25T02:31:42;8.50;;;1.70;;
69126;SDS011;56688;50.234;19.292;2024-01-25T02:34:09;6.30;;;2.00;;
69126;SDS011;56688;50.234;19.292;2024-01-25T02:36:36;5.30;;;1.50;;
69126;SDS011;56688;50.234;19.292;2024-01-25T02:39:04;9.00;;;2.10;;
69126;SDS011;56688;50.234;19.292;2024-01-25T02:41:31;8.10;;;2.10;;
69126;SDS011;56688;50.234;19.292;2024-01-25T02:43:59;8.10;;;1.40;;
69126;SDS011;56688;50.234;19.292;2024-01-25T02:46:27;6.20;;;1.60;;
69126;SDS011;56688;50.234;19.292;2024-01-25T02:48:54;10.00;;;1.80;;
69126;SDS011;56688;50.234;19.292;2024-01-25T02:51:21;6.00;;;1.80;;
69126;SDS011;56688;50.234;19.292;2024-01-25T02:53:48;7.00;;;1.50;;
69126;SDS011;56688;50.234;19.292;2024-01-25T02:56:16;6.00;;;1.60;;
69126;SDS011;56688;50.234;19.292;2024-01-25T02:58:43;9.40;;;2.00;;
69126;SDS011;56688;50.234;19.292;2024-01-25T03:01:10;5.60;;;1.50;;
69126;SDS011;56688;50.234;19.292;2024-01-25T03:03:37;7.30;;;1.70;;
69126;SDS011;56688;50.234;19.292;2024-01-25T03:06:05;5.80;;;1.70;;
69126;SDS011;56688;50.234;19.292;2024-01-25T03:08:33;10.60;;;2.00;;
69126;SDS011;56688;50.234;19.292;2024-01-25T03:11:00;13.20;;;2.30;;
69126;SDS011;56688;50.234;19.292;2024-01-25T03:13:27;11.50;;;2.30;;
69126;SDS011;56688;50.234;19.292;2024-01-25T03:15:54;8.20;;;1.80;;
69126;SDS011;56688;50.234;19.292;2024-01-25T03:18:21;6.00;;;1.20;;
69126;SDS011;56688;50.234;19.292;2024-01-25T03:20:48;12.40;;;1.80;;
69126;SDS011;56688;50.234;19.292;2024-01-25T03:23:17;9.10;;;2.00;;
69126;SDS011;56688;50.234;19.292;2024-01-25T03:25:44;10.00;;;2.40;;
69126;SDS011;56688;50.234;19.292;2024-01-25T03:28:11;9.90;;;1.80;;
69126;SDS011;56688;50.234;19.292;2024-01-25T03:30:40;9.40;;;2.00;;
69126;SDS011;56688;50.234;19.292;2024-01-25T03:33:07;10.00;;;1.80;;
69126;SDS011;56688;50.234;19.292;2024-01-25T03:35:35;6.90;;;1.70;;
69126;SDS011;56688;50.234;19.292;2024-01-25T03:38:01;12.50;;;1.80;;
69126;SDS011;56688;50.234;19.292;2024-01-25T03:40:29;9.60;;;1.70;;
69126;SDS011;56688;50.234;19.292;2024-01-25T03:42:56;10.30;;;1.90;;
69126;SDS011;56688;50.234;19.292;2024-01-25T03:45:43;9.10;;;1.70;;
69126;SDS011;56688;50.234;19.292;2024-01-25T03:48:10;10.30;;;2.00;;
69126;SDS011;56688;50.234;19.292;2024-01-25T03:50:37;11.50;;;1.90;;
69126;SDS011;56688;50.234;19.292;2024-01-25T03:53:04;3.60;;;1.10;;
69126;SDS011;56688;50.234;19.292;2024-01-25T03:55:33;7.10;;;2.00;;
69126;SDS011;56688;50.234;19.292;2024-01-25T03:58:00;8.40;;;1.50;;
69126;SDS011;56688;50.234;19.292;2024-01-25T04:00:27;13.10;;;2.20;;
69126;SDS011;56688;50.234;19.292;2024-01-25T04:02:54;9.00;;;2.10;;
69126;SDS011;56688;50.234;19.292;2024-01-25T04:05:21;9.00;;;2.00;;
69126;SDS011;56688;50.234;19.292;2024-01-25T04:07:50;10.70;;;1.80;;
69126;SDS011;56688;50.234;19.292;2024-01-25T04:10:17;5.90;;;1.60;;
69126;SDS011;56688;50.234;19.292;2024-01-25T04:12:45;8.60;;;1.90;;
69126;SDS011;56688;50.234;19.292;2024-01-25T04:15:14;9.00;;;1.70;;
69126;SDS011;56688;50.234;19.292;2024-01-25T04:17:41;6.60;;;1.90;;
69126;SDS011;56688;50.234;19.292;2024-01-25T04:20:09;5.70;;;1.50;;
69126;SDS011;56688;50.234;19.292;2024-01-25T04:22:37;9.70;;;2.10;;
69126;SDS011;56688;50.234;19.292;2024-01-25T04:25:04;5.50;;;1.40;;
69126;SDS011;56688;50.234;19.292;2024-01-25T04:27:31;9.60;;;1.70;;
69126;SDS011;56688;50.234;19.292;2024-01-25T04:29:58;9.60;;;2.10;;
69126;SDS011;56688;50.234;19.292;2024-01-25T04:32:26;12.20;;;1.90;;
69126;SDS011;56688;50.234;19.292;2024-01-25T04:34:54;10.00;;;2.10;;
69126;SDS011;56688;50.234;19.292;2024-01-25T04:37:21;10.90;;;2.10;;
69126;SDS011;56688;50.234;19.292;2024-01-25T04:39:52;9.90;;;2.10;;
69126;SDS011;56688;50.234;19.292;2024-01-25T04:42:19;9.00;;;1.90;;
69126;SDS011;56688;50.234;19.292;2024-01-25T04:44:46;11.50;;;1.90;;
69126;SDS011;56688;50.234;19.292;2024-01-25T04:47:13;6.50;;;1.40;;
69126;SDS011;56688;50.234;19.292;2024-01-25T04:49:40;7.90;;;1.60;;
69126;SDS011;56688;50.234;19.292;2024-01-25T04:52:07;7.80;;;1.80;;
69126;SDS011;56688;50.234;19.292;2024-01-25T04:54:34;7.90;;;2.10;;
69126;SDS011;56688;50.234;19.292;2024-01-25T04:57:01;9.80;;;1.80;;
69126;SDS011;56688;50.234;19.292;2024-01-25T04:59:33;8.50;;;2.10;;
69126;SDS011;56688;50.234;19.292;2024-01-25T05:02:00;4.70;;;1.60;;
69126;SDS011;56688;50.234;19.292;2024-01-25T05:04:28;8.70;;;2.00;;
69126;SDS011;56688;50.234;19.292;2024-01-25T05:06:56;9.40;;;2.10;;
69126;SDS011;56688;50.234;19.292;2024-01-25T05:09:24;6.90;;;1.90;;
69126;SDS011;56688;50.234;19.292;2024-01-25T05:11:50;5.40;;;1.50;;
69126;SDS011;56688;50.234;19.292;2024-01-25T05:14:17;7.10;;;1.70;;
69126;SDS011;56688;50.234;19.292;2024-01-25T05:16:44;6.20;;;1.60;;
69126;SDS011;56688;50.234;19.292;2024-01-25T05:19:11;10.40;;;2.10;;
69126;SDS011;56688;50.234;19.292;2024-01-25T05:21:38;5.30;;;1.80;;
69126;SDS011;56688;50.234;19.292;2024-01-25T05:24:05;11.40;;;2.10;;
69126;SDS011;56688;50.234;19.292;2024-01-25T05:26:34;11.10;;;2.20;;
69126;SDS011;56688;50.234;19.292;2024-01-25T05:29:01;8.60;;;2.00;;
69126;SDS011;56688;50.234;19.292;2024-01-25T05:31:28;5.70;;;1.60;;
69126;SDS011;56688;50.234;19.292;2024-01-25T05:33:55;6.30;;;1.70;;
69126;SDS011;56688;50.234;19.292;2024-01-25T05:36:22;9.80;;;2.30;;
69126;SDS011;56688;50.234;19.292;2024-01-25T05:38:49;13.30;;;2.20;;
69126;SDS011;56688;50.234;19.292;2024-01-25T05:41:16;8.00;;;1.80;;
69126;SDS011;56688;50.234;19.292;2024-01-25T05:43:43;10.90;;;2.10;;
69126;SDS011;56688;50.234;19.292;2024-01-25T05:46:11;10.50;;;2.20;;
69126;SDS011;56688;50.234;19.292;2024-01-25T05:48:39;9.70;;;1.80;;
69126;SDS011;56688;50.234;19.292;2024-01-25T05:51:06;9.00;;;1.90;;
69126;SDS011;56688;50.234;19.292;2024-01-25T05:53:33;11.60;;;1.70;;
69126;SDS011;56688;50.234;19.292;2024-01-25T05:56:00;9.10;;;1.90;;
69126;SDS011;56688;50.234;19.292;2024-01-25T05:58:27;8.50;;;1.60;;
69126;SDS011;56688;50.234;19.292;2024-01-25T06:00:55;7.30;;;1.60;;
69126;SDS011;56688;50.234;19.292;2024-01-25T06:03:22;8.90;;;1.70;;
69126;SDS011;56688;50.234;19.292;2024-01-25T06:05:49;8.50;;;2.70;;
69126;SDS011;56688;50.234;19.292;2024-01-25T06:08:16;9.60;;;2.40;;
69126;SDS011;56688;50.234;19.292;2024-01-25T06:10:43;6.90;;;1.90;;
69126;SDS011;56688;50.234;19.292;2024-01-25T06:13:12;12.70;;;2.50;;
69126;SDS011;56688;50.234;19.292;2024-01-25T06:15:39;10.80;;;2.20;;
69126;SDS011;56688;50.234;19.292;2024-01-25T06:18:06;8.20;;;2.00;;
69126;SDS011;56688;50.234;19.292;2024-01-25T06:20:34;8.60;;;2.30;;
69126;SDS011;56688;50.234;19.292;2024-01-25T06:23:01;10.80;;;2.50;;
69126;SDS011;56688;50.234;19.292;2024-01-25T06:25:28;7.40;;;2.10;;
69126;SDS011;56688;50.234;19.292;2024-01-25T06:27:58;11.60;;;2.20;;
69126;SDS011;56688;50.234;19.292;2024-01-25T06:30:26;8.20;;;2.10;;
69126;SDS011;56688;50.234;19.292;2024-01-25T06:32:52;11.60;;;2.30;;
69126;SDS011;56688;50.234;19.292;2024-01-25T06:35:20;9.50;;;2.10;;
69126;SDS011;56688;50.234;19.292;2024-01-25T06:37:47;6.20;;;1.60;;
69126;SDS011;56688;50.234;19.292;2024-01-25T06:40:14;7.30;;;1.70;;
69126;SDS011;56688;50.234;19.292;2024-01-25T06:42:41;10.00;;;2.10;;
69126;SDS011;56688;50.234;19.292;2024-01-25T06:45:10;11.30;;;2.10;;
69126;SDS011;56688;50.234;19.292;2024-01-25T06:47:37;10.30;;;2.10;;
69126;SDS011;56688;50.234;19.292;2024-01-25T06:50:04;6.20;;;1.60;;
69126;SDS011;56688;50.234;19.292;2024-01-25T06:52:33;9.50;;;2.60;;
69126;SDS011;56688;50.234;19.292;2024-01-25T06:55:00;6.60;;;1.70;;
69126;SDS011;56688;50.234;19.292;2024-01-25T06:57:28;8.10;;;2.00;;
69126;SDS011;56688;50.234;19.292;2024-01-25T06:59:55;8.30;;;2.40;;
69126;SDS011;56688;50.234;19.292;2024-01-25T07:02:23;7.10;;;2.20;;
69126;SDS011;56688;50.234;19.292;2024-01-25T07:04:50;9.40;;;2.10;;
69126;SDS011;56688;50.234;19.292;2024-01-25T07:07:20;9.20;;;2.70;;
69126;SDS011;56688;50.234;19.292;2024-01-25T07:09:47;6.00;;;1.50;;
69126;SDS011;56688;50.234;19.292;2024-01-25T07:12:14;8.00;;;2.40;;
69126;SDS011;56688;50.234;19.292;2024-01-25T07:14:41;11.30;;;2.70;;
69126;SDS011;56688;50.234;19.292;2024-01-25T07:17:08;12.60;;;3.20;;
69126;SDS011;56688;50.234;19.292;2024-01-25T07:19:35;12.40;;;3.30;;
69126;SDS011;56688;50.234;19.292;2024-01-25T07:22:02;10.30;;;2.80;;
69126;SDS011;56688;50.234;19.292;2024-01-25T07:24:30;12.80;;;3.10;;
69126;SDS011;56688;50.234;19.292;2024-01-25T07:26:58;9.90;;;2.30;;
69126;SDS011;56688;50.234;19.292;2024-01-25T07:29:25;7.50;;;2.20;;
69126;SDS011;56688;50.234;19.292;2024-01-25T07:31:52;8.60;;;2.30;;
69126;SDS011;56688;50.234;19.292;2024-01-25T07:34:19;8.10;;;2.30;;
69126;SDS011;56688;50.234;19.292;2024-01-25T07:36:46;11.50;;;2.80;;
69126;SDS011;56688;50.234;19.292;2024-01-25T07:39:13;14.10;;;2.40;;
69126;SDS011;56688;50.234;19.292;2024-01-25T07:41:40;9.40;;;2.20;;
69126;SDS011;56688;50.234;19.292;2024-01-25T07:44:07;10.60;;;2.80;;
69126;SDS011;56688;50.234;19.292;2024-01-25T07:46:35;8.40;;;2.60;;
69126;SDS011;56688;50.234;19.292;2024-01-25T07:49:02;11.50;;;3.40;;
69126;SDS011;56688;50.234;19.292;2024-01-25T07:51:30;7.40;;;2.70;;
69126;SDS011;56688;50.234;19.292;2024-01-25T07:53:57;10.90;;;2.70;;
69126;SDS011;56688;50.234;19.292;2024-01-25T07:56:24;13.60;;;2.70;;
69126;SDS011;56688;50.234;19.292;2024-01-25T07:58:51;12.80;;;3.60;;
69126;SDS011;56688;50.234;19.292;2024-01-25T08:01:18;9.60;;;3.30;;
69126;SDS011;56688;50.234;19.292;2024-01-25T08:03:45;14.60;;;4.50;;
69126;SDS011;56688;50.234;19.292;2024-01-25T08:06:13;9.40;;;4.00;;
69126;SDS011;56688;50.234;19.292;2024-01-25T08:08:40;11.20;;;3.40;;
69126;SDS011;56688;50.234;19.292;2024-01-25T08:11:08;10.90;;;3.30;;
69126;SDS011;56688;50.234;19.292;2024-01-25T08:13:35;11.20;;;3.30;;
69126;SDS011;56688;50.234;19.292;2024-01-25T08:16:02;11.40;;;3.20;;
69126;SDS011;56688;50.234;19.292;2024-01-25T08:18:29;13.30;;;3.40;;
69126;SDS011;56688;50.234;19.292;2024-01-25T08:20:57;13.90;;;2.90;;
69126;SDS011;56688;50.234;19.292;2024-01-25T08:23:25;9.60;;;2.70;;
69126;SDS011;56688;50.234;19.292;2024-01-25T08:25:52;6.30;;;2.60;;
69126;SDS011;56688;50.234;19.292;2024-01-25T08:28:19;11.30;;;2.80;;
69126;SDS011;56688;50.234;19.292;2024-01-25T08:30:48;12.10;;;3.10;;
69126;SDS011;56688;50.234;19.292;2024-01-25T08:33:15;10.90;;;3.70;;
69126;SDS011;56688;50.234;19.292;2024-01-25T08:35:43;19.30;;;4.30;;
69126;SDS011;56688;50.234;19.292;2024-01-25T08:38:10;15.30;;;3.80;;
69126;SDS011;56688;50.234;19.292;2024-01-25T08:40:37;13.50;;;3.60;;
69126;SDS011;56688;50.234;19.292;2024-01-25T08:43:05;14.30;;;3.60;;
69126;SDS011;56688;50.234;19.292;2024-01-25T08:45:32;9.20;;;3.10;;
69126;SDS011;56688;50.234;19.292;2024-01-25T08:48:00;6.50;;;2.70;;
69126;SDS011;56688;50.234;19.292;2024-01-25T08:50:27;11.40;;;3.20;;
69126;SDS011;56688;50.234;19.292;2024-01-25T08:52:55;9.00;;;2.30;;
69126;SDS011;56688;50.234;19.292;2024-01-25T08:55:22;10.50;;;2.80;;
69126;SDS011;56688;50.234;19.292;2024-01-25T08:57:49;14.10;;;3.00;;
69126;SDS011;56688;50.234;19.292;2024-01-25T09:00:17;14.10;;;3.10;;
69126;SDS011;56688;50.234;19.292;2024-01-25T09:02:45;10.40;;;2.70;;
69126;SDS011;56688;50.234;19.292;2024-01-25T09:05:12;11.20;;;3.60;;
69126;SDS011;56688;50.234;19.292;2024-01-25T09:07:40;12.10;;;3.00;;
69126;SDS011;56688;50.234;19.292;2024-01-25T09:10:08;14.30;;;2.70;;
69126;SDS011;56688;50.234;19.292;2024-01-25T09:12:37;9.20;;;2.80;;
69126;SDS011;56688;50.234;19.292;2024-01-25T09:15:06;20.90;;;3.40;;
69126;SDS011;56688;50.234;19.292;2024-01-25T09:17:34;13.30;;;3.30;;
69126;SDS011;56688;50.234;19.292;2024-01-25T09:20:02;11.50;;;3.40;;
69126;SDS011;56688;50.234;19.292;2024-01-25T09:22:30;13.10;;;3.30;;
69126;SDS011;56688;50.234;19.292;2024-01-25T09:24:57;12.30;;;2.80;;
69126;SDS011;56688;50.234;19.292;2024-01-25T09:27:24;14.90;;;3.00;;
69126;SDS011;56688;50.234;19.292;2024-01-25T09:29:51;15.40;;;3.30;;
69126;SDS011;56688;50.234;19.292;2024-01-25T09:32:35;15.00;;;3.20;;
69126;SDS011;56688;50.234;19.292;2024-01-25T09:35:02;12.90;;;3.30;;
69126;SDS011;56688;50.234;19.292;2024-01-25T09:37:30;13.80;;;4.00;;
69126;SDS011;56688;50.234;19.292;2024-01-25T09:39:58;15.00;;;4.10;;
69126;SDS011;56688;50.234;19.292;2024-01-25T09:42:26;17.60;;;3.70;;
69126;SDS011;56688;50.234;19.292;2024-01-25T09:44:54;11.10;;;3.00;;
69126;SDS011;56688;50.234;19.292;2024-01-25T09:47:21;10.00;;;3.10;;
69126;SDS011;56688;50.234;19.292;2024-01-25T09:49:48;18.60;;;3.70;;
69126;SDS011;56688;50.234;19.292;2024-01-25T09:52:16;8.40;;;2.90;;
69126;SDS011;56688;50.234;19.292;2024-01-25T09:54:43;12.50;;;3.80;;
69126;SDS011;56688;50.234;19.292;2024-01-25T09:57:14;19.80;;;3.60;;
69126;SDS011;56688;50.234;19.292;2024-01-25T09:59:44;12.90;;;3.70;;
69126;SDS011;56688;50.234;19.292;2024-01-25T10:02:11;14.80;;;3.50;;
69126;SDS011;56688;50.234;19.292;2024-01-25T10:04:39;14.50;;;4.40;;
69126;SDS011;56688;50.234;19.292;2024-01-25T10:07:06;14.70;;;4.50;;
69126;SDS011;56688;50.234;19.292;2024-01-25T10:09:41;15.30;;;4.50;;
69126;SDS011;56688;50.234;19.292;2024-01-25T10:12:09;12.30;;;3.50;;
69126;SDS011;56688;50.234;19.292;2024-01-25T10:14:45;15.20;;;3.90;;
69126;SDS011;56688;50.234;19.292;2024-01-25T10:17:12;14.20;;;4.10;;
69126;SDS011;56688;50.234;19.292;2024-01-25T10:19:42;18.70;;;4.70;;
69126;SDS011;56688;50.234;19.292;2024-01-25T10:22:11;17.00;;;3.90;;
69126;SDS011;56688;50.234;19.292;2024-01-25T10:24:41;13.60;;;3.40;;
69126;SDS011;56688;50.234;19.292;2024-01-25T10:27:09;16.00;;;3.90;;
69126;SDS011;56688;50.234;19.292;2024-01-25T10:29:37;11.60;;;3.40;;
69126;SDS011;56688;50.234;19.292;2024-01-25T10:32:04;12.50;;;3.00;;
69126;SDS011;56688;50.234;19.292;2024-01-25T10:34:32;13.40;;;2.80;;
69126;SDS011;56688;50.234;19.292;2024-01-25T10:37:03;12.20;;;3.40;;
69126;SDS011;56688;50.234;19.292;2024-01-25T10:39:36;12.20;;;3.20;;
69126;SDS011;56688;50.234;19.292;2024-01-25T10:42:04;14.40;;;3.70;;
69126;SDS011;56688;50.234;19.292;2024-01-25T10:44:31;12.90;;;3.50;;
69126;SDS011;56688;50.234;19.292;2024-01-25T10:46:58;18.00;;;4.10;;
69126;SDS011;56688;50.234;19.292;2024-01-25T10:49:26;19.40;;;4.90;;
69126;SDS011;56688;50.234;19.292;2024-01-25T10:51:55;16.20;;;4.10;;
69126;SDS011;56688;50.234;19.292;2024-01-25T10:54:22;15.10;;;3.70;;
69126;SDS011;56688;50.234;19.292;2024-01-25T10:56:49;9.00;;;2.90;;
69126;SDS011;56688;50.234;19.292;2024-01-25T10:59:18;17.10;;;3.90;;
69126;SDS011;56688;50.234;19.292;2024-01-25T11:01:45;14.50;;;3.70;;
69126;SDS011;56688;50.234;19.292;2024-01-25T11:04:16;11.50;;;3.30;;
69126;SDS011;56688;50.234;19.292;2024-01-25T11:06:45;17.00;;;3.90;;
69126;SDS011;56688;50.234;19.292;2024-01-25T11:09:21;17.00;;;4.00;;
69126;SDS011;56688;50.234;19.292;2024-01-25T11:11:49;17.40;;;3.90;;
69126;SDS011;56688;50.234;19.292;2024-01-25T11:14:20;11.90;;;3.90;;
69126;SDS011;56688;50.234;19.292;2024-01-25T11:16:47;15.50;;;3.70;;
69126;SDS011;56688;50.234;19.292;2024-01-25T11:19:18;16.10;;;3.60;;
69126;SDS011;56688;50.234;19.292;2024-01-25T11:21:48;16.20;;;3.70;;
69126;SDS011;56688;50.234;19.292;2024-01-25T11:24:21;17.70;;;4.00;;
69126;SDS011;56688;50.234;19.292;2024-01-25T11:26:49;10.80;;;3.20;;
69126;SDS011;56688;50.234;19.292;2024-01-25T11:29:18;15.10;;;4.00;;
69126;SDS011;56688;50.234;19.292;2024-01-25T11:31:49;11.10;;;3.10;;
69126;SDS011;56688;50.234;19.292;2024-01-25T11:34:17;15.90;;;3.40;;
69126;SDS011;56688;50.234;19.292;2024-01-25T11:36:45;10.90;;;2.80;;
69126;SDS011;56688;50.234;19.292;2024-01-25T11:39:14;12.30;;;3.10;;
69126;SDS011;56688;50.234;19.292;2024-01-25T11:41:43;10.60;;;3.30;;
69126;SDS011;56688;50.234;19.292;2024-01-25T11:44:11;12.90;;;3.80;;
69126;SDS011;56688;50.234;19.292;2024-01-25T11:46:40;15.00;;;4.10;;
69126;SDS011;56688;50.234;19.292;2024-01-25T11:49:08;15.80;;;3.60;;
69126;SDS011;56688;50.234;19.292;2024-01-25T11:51:35;15.00;;;4.10;;
69126;SDS011;56688;50.234;19.292;2024-01-25T11:54:02;14.10;;;3.40;;
69126;SDS011;56688;50.234;19.292;2024-01-25T11:56:34;15.30;;;4.00;;
69126;SDS011;56688;50.234;19.292;2024-01-25T11:59:08;12.40;;;3.50;;
69126;SDS011;56688;50.234;19.292;2024-01-25T12:01:36;13.20;;;3.40;;
69126;SDS011;56688;50.234;19.292;2024-01-25T12:04:04;10.80;;;3.30;;
69126;SDS011;56688;50.234;19.292;2024-01-25T12:06:31;12.10;;;2.80;;
69126;SDS011;56688;50.234;19.292;2024-01-25T12:09:07;15.60;;;4.60;;
69126;SDS011;56688;50.234;19.292;2024-01-25T12:11:35;17.30;;;4.30;;
69126;SDS011;56688;50.234;19.292;2024-01-25T12:14:02;14.40;;;4.70;;
69126;SDS011;56688;50.234;19.292;2024-01-25T12:16:29;21.00;;;4.60;;
69126;SDS011;56688;50.234;19.292;2024-01-25T12:19:00;17.70;;;4.80;;
69126;SDS011;56688;50.234;19.292;2024-01-25T12:21:27;14.50;;;4.20;;
69126;SDS011;56688;50.234;19.292;2024-01-25T12:23:54;13.30;;;3.50;;
69126;SDS011;56688;50.234;19.292;2024-01-25T12:26:21;12.00;;;3.50;;
69126;SDS011;56688;50.234;19.292;2024-01-25T12:28:48;9.30;;;3.30;;
69126;SDS011;56688;50.234;19.292;2024-01-25T12:31:16;12.00;;;4.00;;
69126;SDS011;56688;50.234;19.292;2024-01-25T12:33:44;16.70;;;3.90;;
69126;SDS011;56688;50.234;19.292;2024-01-25T12:36:12;7.40;;;3.10;;
69126;SDS011;56688;50.234;19.292;2024-01-25T12:38:39;13.90;;;3.80;;
69126;SDS011;56688;50.234;19.292;2024-01-25T12:41:08;11.30;;;3.50;;
69126;SDS011;56688;50.234;19.292;2024-01-25T12:43:35;12.10;;;3.30;;
69126;SDS011;56688;50.234;19.292;2024-01-25T12:46:02;10.40;;;3.50;;
69126;SDS011;56688;50.234;19.292;2024-01-25T12:48:47;13.40;;;3.80;;
69126;SDS011;56688;50.234;19.292;2024-01-25T12:51:15;13.80;;;3.70;;
69126;SDS011;56688;50.234;19.292;2024-01-25T12:53:42;11.40;;;3.30;;
69126;SDS011;56688;50.234;19.292;2024-01-25T12:56:09;16.70;;;4.00;;
69126;SDS011;56688;50.234;19.292;2024-01-25T12:58:36;13.30;;;3.70;;
69126;SDS011;56688;50.234;19.292;2024-01-25T13:01:04;12.40;;;3.40;;
69126;SDS011;56688;50.234;19.292;2024-01-25T13:03:31;14.70;;;4.30;;
69126;SDS011;56688;50.234;19.292;2024-01-25T13:05:58;14.60;;;4.00;;
69126;SDS011;56688;50.234;19.292;2024-01-25T13:08:25;14.80;;;4.60;;
69126;SDS011;56688;50.234;19.292;2024-01-25T13:10:52;16.90;;;5.10;;
69126;SDS011;56688;50.234;19.292;2024-01-25T13:13:19;21.00;;;5.40;;
69126;SDS011;56688;50.234;19.292;2024-01-25T13:15:47;13.90;;;4.00;;
69126;SDS011;56688;50.234;19.292;2024-01-25T13:18:14;11.60;;;3.80;;
69126;SDS011;56688;50.234;19.292;2024-01-25T13:20:41;13.00;;;4.10;;
69126;SDS011;56688;50.234;19.292;2024-01-25T13:23:10;14.00;;;4.30;;
69126;SDS011;56688;50.234;19.292;2024-01-25T13:25:37;15.50;;;4.40;;
69126;SDS011;56688;50.234;19.292;2024-01-25T13:28:04;16.40;;;4.70;;
69126;SDS011;56688;50.234;19.292;2024-01-25T13:30:31;11.70;;;4.30;;
69126;SDS011;56688;50.234;19.292;2024-01-25T13:32:59;14.00;;;4.60;;
69126;SDS011;56688;50.234;19.292;2024-01-25T13:35:26;15.10;;;5.00;;
69126;SDS011;56688;50.234;19.292;2024-01-25T13:37:53;10.20;;;3.20;;
69126;SDS011;56688;50.234;19.292;2024-01-25T13:40:20;12.60;;;3.60;;
69126;SDS011;56688;50.234;19.292;2024-01-25T13:42:47;12.80;;;3.60;;
69126;SDS011;56688;50.234;19.292;2024-01-25T13:45:14;15.00;;;4.20;;
69126;SDS011;56688;50.234;19.292;2024-01-25T13:47:41;17.00;;;4.60;;
69126;SDS011;56688;50.234;19.292;2024-01-25T13:50:08;19.40;;;5.10;;
69126;SDS011;56688;50.234;19.292;2024-01-25T13:52:36;11.00;;;3.50;;
69126;SDS011;56688;50.234;19.292;2024-01-25T13:55:03;13.40;;;3.70;;
69126;SDS011;56688;50.234;19.292;2024-01-25T13:57:30;16.60;;;4.50;;
69126;SDS011;56688;50.234;19.292;2024-01-25T13:59:57;13.80;;;4.10;;
69126;SDS011;56688;50.234;19.292;2024-01-25T14:02:24;16.00;;;3.90;;
69126;SDS011;56688;50.234;19.292;2024-01-25T14:04:51;12.30;;;4.40;;
69126;SDS011;56688;50.234;19.292;2024-01-25T14:07:18;14.60;;;4.30;;
69126;SDS011;56688;50.234;19.292;2024-01-25T14:09:46;12.50;;;4.80;;
69126;SDS011;56688;50.234;19.292;2024-01-25T14:12:18;8.20;;;3.00;;
69126;SDS011;56688;50.234;19.292;2024-01-25T14:14:45;8.40;;;2.70;;
69126;SDS011;56688;50.234;19.292;2024-01-25T14:17:12;14.50;;;3.60;;
69126;SDS011;56688;50.234;19.292;2024-01-25T14:19:39;11.90;;;3.60;;
69126;SDS011;56688;50.234;19.292;2024-01-25T14:22:07;15.20;;;3.90;;
69126;SDS011;56688;50.234;19.292;2024-01-25T14:24:54;18.10;;;4.30;;
69126;SDS011;56688;50.234;19.292;2024-01-25T14:27:22;18.30;;;4.20;;
69126;SDS011;56688;50.234;19.292;2024-01-25T14:29:50;8.20;;;3.50;;